Aviation Digital Data Service (ADDS)

Output produced by METARs form (1605 UTC 18 February 2019)
found at http://www.aviationweather.gov/metar/data/
 
TAF LETO 181100Z 1812/1912 VRB05KT CAVOK TX16/1816Z TN00/1906Z
       
TAF LEZG 181100Z 1812/1912 09008KT 9999 FEW020 TX17/1815Z TN04/1907Z 
     BECMG 1904/1906 30005KT 
     PROB30 
     TEMPO 1818/1906 2000 BR BKN006
       
TAF LERT 181400Z 1815/1824 14012KT 9999 FEW015 BKN040 
     PROB40 
     TEMPO 1815/1819 RA
       
TAF COR LELC 181200Z 1812/1912 04012KT 9999 FEW010 BKN025 TX16/1814Z TN10/1907Z 
     TEMPO 1812/1816 BKN012 
     BECMG 1820/1822 34008KT 
     BECMG 1908/1910 05012KT
       
TAF LEAB 181400Z 1815/1824 14010KT CAVOK
       
TAF LEBZ 181100Z 1812/1912 08006KT 9999 FEW020 BKN040 TX14/1815Z TN06/1906Z 
     PROB40 
     TEMPO 1812/1818 4000 RA BKN010 
     TEMPO 1900/1911 3000 BR 
     PROB40 
     TEMPO 1902/1910 0300 FG VV001
       
TAF LEMO 181400Z 1815/1824 12006KT 9999 FEW030 
     PROB30 
     TEMPO 1815/1820 RA
       
TAF LESA 181100Z 1812/1912 VRB05KT CAVOK TX15/1815Z TNM01/1906Z 
     PROB30 
     TEMPO 1812/1819 FEW035TCU 
     PROB40 
     TEMPO 1903/1910 3000 BR BKN006 
     PROB30 
     TEMPO 1904/1910 0100 FG VV001
       
TAF GCLP 181400Z 1815/1915 01020KT 9999 BKN025 TX20/1914Z TN15/1906Z 
     PROB30 
     TEMPO 1815/1817 RA 
     PROB40 
     TEMPO 1815/1823 01018G28KT
       
TAF LIED 181400Z 1815/1824 14012KT 9999 SCT030
       
TAF LIPR 181400Z 1815/1824 VRB04KT 7000 NSC 
     BECMG 1818/1820 1500 BR 
     BECMG 1821/1823 0400 FG